Time;durP1;ratioP1;P1;durP2;ratioP2;P2;SDS_P1;SDS_P2;PMS_P1;PMS_P2;Temp;Humidity;BMP_temperature;BMP_pressure;BME280_temperature;BME280_humidity;BME280_pressure;Samples;Min_cycle;Max_cycle;Signal;HPM_P1;HPM_P2
2022/01/23 00:01:16;;;;;;;129.57;76.35;;;;;;;20.27;45.19;103636.25;5083092;28;20094;-34
2022/01/23 00:03:47;;;;;;;135.60;78.35;;;;;;;20.21;45.81;103637.50;5079698;28;20051;-35
2022/01/23 00:06:14;;;;;;;132.23;79.05;;;;;;;20.17;45.28;103646.75;5077731;28;20142;-34
2022/01/23 00:08:44;;;;;;;136.65;79.43;;;;;;;20.14;45.85;103641.56;5079610;28;20056;-34
2022/01/23 00:11:11;;;;;;;137.18;80.20;;;;;;;20.10;45.44;103642.72;5082000;28;20147;-34
2022/01/23 00:19:12;;;;;;;139.98;83.82;;;;;;;19.97;46.19;103639.97;5079223;28;20051;-34
2022/01/23 00:21:40;;;;;;;143.63;84.65;;;;;;;19.92;46.17;103639.41;5079370;28;20043;-34
2022/01/23 00:32:07;;;;;;;145.55;83.35;;;;;;;19.74;46.22;103633.38;5081595;28;20131;-34
2022/01/23 00:34:34;;;;;;;142.93;84.55;;;;;;;19.70;46.66;103643.47;5078437;28;20074;-34
2022/01/23 00:37:00;;;;;;;142.93;84.30;;;;;;;19.64;46.59;103635.75;5076819;28;20148;-34
2022/01/23 00:39:27;;;;;;;144.35;85.03;;;;;;;19.62;46.86;103640.38;5076822;28;20434;-34
2022/01/23 00:41:53;;;;;;;143.93;83.95;;;;;;;19.59;47.10;103640.53;5080374;28;20058;-34
2022/01/23 00:44:20;;;;;;;145.57;85.82;;;;;;;19.56;47.05;103642.53;5078151;28;20135;-34
2022/01/23 00:46:50;;;;;;;143.85;86.45;;;;;;;19.54;47.21;103639.06;5077778;28;21291;-34
2022/01/23 00:49:26;;;;;;;141.68;83.03;;;;;;;19.49;46.81;103632.16;5076449;28;20050;-34
2022/01/23 00:51:54;;;;;;;145.70;86.10;;;;;;;19.46;46.93;103628.81;5078638;28;20056;-34
2022/01/23 00:54:21;;;;;;;147.35;85.45;;;;;;;19.43;47.43;103635.25;5080081;28;20047;-34
2022/01/23 00:56:48;;;;;;;141.20;82.95;;;;;;;19.41;47.35;103636.28;5077826;28;20048;-33
2022/01/23 00:59:15;;;;;;;145.13;83.28;;;;;;;19.37;47.39;103640.97;5078876;28;20046;-33
2022/01/23 01:01:42;;;;;;;143.15;82.35;;;;;;;19.34;47.52;103643.88;5078161;28;20052;-33
2022/01/23 01:04:08;;;;;;;140.02;82.32;;;;;;;19.31;47.49;103646.75;5080757;28;20048;-33
2022/01/23 01:06:35;;;;;;;141.20;83.07;;;;;;;19.30;47.25;103644.16;5082642;28;20139;-33
2022/01/23 01:09:05;;;;;;;139.73;82.15;;;;;;;19.28;47.25;103635.31;5078771;28;20131;-33
2022/01/23 01:30:14;;;;;;;138.18;78.70;;;;;;;19.21;47.38;103634.81;5077712;28;20048;-33
2022/01/23 01:30:17;;;;;;;134.52;80.18;;;;;;;19.18;47.29;103643.94;5079045;28;20063;-33
2022/01/23 01:31:12;;;;;;;131.50;76.90;;;;;;;19.13;47.52;103645.16;5078303;28;20132;-33
2022/01/23 01:34:04;;;;;;;130.38;74.35;;;;;;;19.11;47.89;103644.41;5080934;28;20044;-33
2022/01/23 01:38:54;;;;;;;127.60;74.85;;;;;;;19.07;47.59;103651.78;5078071;28;20080;-33
2022/01/23 01:41:21;;;;;;;123.68;71.63;;;;;;;19.06;47.94;103655.44;5077009;28;20045;-34
2022/01/23 01:43:51;;;;;;;124.20;71.40;;;;;;;19.03;47.36;103642.19;5079474;28;20511;-33
2022/01/23 01:46:17;;;;;;;124.43;71.05;;;;;;;19.04;47.63;103648.41;5079634;28;20098;-34
2022/01/23 01:48:44;;;;;;;123.72;71.53;;;;;;;19.02;47.60;103647.66;5076272;28;20044;-33
2022/01/23 01:51:15;;;;;;;118.97;70.72;;;;;;;18.98;48.05;103639.78;5078896;28;20048;-34
2022/01/23 01:53:48;;;;;;;119.68;68.88;;;;;;;18.98;48.11;103655.03;5077840;28;20044;-34
2022/01/23 01:56:15;;;;;;;118.60;68.88;;;;;;;18.97;47.79;103645.22;5081044;28;20072;-34
2022/01/23 02:09:24;;;;;;;115.38;65.65;;;;;;;18.86;47.85;103628.91;5067561;28;20061;-33
2022/01/23 02:17:39;;;;;;;103.43;61.35;;;;;;;18.81;47.97;103629.13;5080980;28;20036;-33
2022/01/23 02:23:24;;;;;;;107.05;60.40;;;;;;;18.77;48.44;103627.59;5077830;28;20044;-33
2022/01/23 02:51:03;;;;;;;89.88;51.67;;;;;;;18.63;48.53;103617.63;5083763;28;20435;-33
2022/01/23 02:53:52;;;;;;;91.85;52.85;;;;;;;18.60;48.26;103622.31;5076854;28;20066;-33
2022/01/23 02:56:32;;;;;;;82.78;50.17;;;;;;;18.60;48.65;103627.69;5081765;28;20048;-33
2022/01/23 02:59:10;;;;;;;87.22;50.53;;;;;;;18.59;48.03;103634.03;5080466;28;20051;-34
2022/01/23 03:01:47;;;;;;;78.88;46.80;;;;;;;18.56;48.49;103621.63;5083331;28;20063;-33
2022/01/23 03:04:20;;;;;;;81.35;46.75;;;;;;;18.57;48.26;103622.50;5080759;28;20062;-33
2022/01/23 03:14:38;;;;;;;77.90;45.63;;;;;;;18.50;48.56;103622.88;5080919;28;20048;-34
2022/01/23 03:30:51;;;;;;;71.32;41.33;;;;;;;18.44;48.56;103625.03;5077937;28;20050;-33
2022/01/23 03:33:17;;;;;;;73.28;41.88;;;;;;;18.44;48.65;103633.09;5077604;28;20051;-33
2022/01/23 03:35:44;;;;;;;70.38;40.63;;;;;;;18.41;48.49;103634.16;5083505;28;20048;-33
2022/01/23 03:38:10;;;;;;;65.40;39.28;;;;;;;18.40;48.43;103636.91;5083754;28;20048;-33
2022/01/23 03:40:37;;;;;;;64.57;37.28;;;;;;;18.38;48.64;103637.00;5082029;28;20040;-34
2022/01/23 03:43:12;;;;;;;64.88;38.72;;;;;;;18.39;48.59;103633.34;5080393;28;20051;-34
2022/01/23 03:50:42;;;;;;;63.83;37.88;;;;;;;18.37;48.31;103631.69;5078972;28;20134;-33
2022/01/23 03:53:09;;;;;;;60.03;35.58;;;;;;;18.36;48.60;103632.66;5078764;28;20445;-33
2022/01/23 03:55:36;;;;;;;57.58;34.50;;;;;;;18.35;48.57;103636.31;5082866;28;20067;-33
2022/01/23 03:58:03;;;;;;;59.20;34.80;;;;;;;18.34;48.66;103645.31;5078283;28;20134;-33
2022/01/23 04:00:30;;;;;;;60.40;34.55;;;;;;;18.34;48.31;103648.88;5077668;28;20620;-33
2022/01/23 04:02:58;;;;;;;56.75;33.67;;;;;;;18.32;48.25;103649.91;5080428;28;20047;-33
2022/01/23 04:05:24;;;;;;;58.13;33.58;;;;;;;18.31;48.39;103654.41;5082887;28;20463;-33
2022/01/23 04:07:51;;;;;;;54.97;32.70;;;;;;;18.31;48.62;103648.16;5080017;28;20070;-34
2022/01/23 04:10:20;;;;;;;50.55;30.70;;;;;;;18.31;48.62;103657.09;5078500;28;20058;-33
2022/01/23 04:12:57;;;;;;;53.90;31.15;;;;;;;18.28;48.64;103659.94;5074747;28;20138;-33
2022/01/23 04:15:49;;;;;;;54.63;32.20;;;;;;;18.29;48.25;103666.16;5079973;28;20637;-34
2022/01/23 04:21:15;;;;;;;51.05;29.67;;;;;;;18.27;48.42;103660.03;5078382;28;20048;-33
2022/01/23 04:32:09;;;;;;;50.47;30.17;;;;;;;18.22;48.39;103661.16;5080163;28;20058;-33
2022/01/23 04:35:02;;;;;;;46.78;28.20;;;;;;;18.21;48.68;103663.91;5076475;28;20459;-34
2022/01/23 04:45:48;;;;;;;46.38;27.58;;;;;;;18.17;48.42;103655.19;5076321;28;20052;-34
2022/01/23 04:59:48;;;;;;;39.72;23.65;;;;;;;18.13;48.70;103661.69;5077422;28;20139;-34
2022/01/23 05:05:01;;;;;;;38.55;22.80;;;;;;;18.11;48.68;103662.72;5080691;28;20097;-33
2022/01/23 05:07:29;;;;;;;38.72;23.08;;;;;;;18.10;49.02;103666.34;5077272;28;20131;-31
2022/01/23 05:09:56;;;;;;;38.83;22.92;;;;;;;18.09;48.62;103670.88;5074072;28;20062;-33
2022/01/23 05:12:26;;;;;;;36.88;21.75;;;;;;;18.09;48.79;103670.88;5081230;28;20044;-31
2022/01/23 05:14:53;;;;;;;34.72;21.15;;;;;;;18.07;48.36;103662.00;5076735;28;20136;-33
2022/01/23 05:17:20;;;;;;;38.22;22.13;;;;;;;18.07;48.31;103663.84;5079392;28;20358;-33
2022/01/23 05:19:46;;;;;;;36.05;21.98;;;;;;;18.06;48.34;103654.06;5077467;28;20049;-33
2022/01/23 05:23:01;;;;;;;34.80;20.90;;;;;;;18.04;48.64;103653.25;5075016;28;20052;-33
2022/01/23 05:25:30;;;;;;;31.48;18.80;;;;;;;18.03;48.24;103660.44;5072409;28;20051;-34
2022/01/23 05:27:52;;;;;;;34.72;20.35;;;;;;;18.02;48.54;103658.72;5080975;28;20044;-33
2022/01/23 05:30:19;;;;;;;31.20;18.27;;;;;;;18.01;48.30;103659.69;5075317;28;20071;-33
2022/01/23 05:32:46;;;;;;;32.40;19.67;;;;;;;17.99;48.26;103654.38;5083739;28;20447;-33
2022/01/23 05:35:14;;;;;;;31.20;19.42;;;;;;;17.99;48.36;103654.38;5080803;28;20443;-34
2022/01/23 05:37:41;;;;;;;32.88;19.02;;;;;;;17.98;48.47;103660.72;5084100;28;20063;-34
2022/01/23 05:40:12;;;;;;;27.48;17.50;;;;;;;17.98;48.41;103660.72;5082424;28;20044;-34
2022/01/23 05:42:39;;;;;;;30.10;18.15;;;;;;;17.96;48.31;103662.59;5077389;28;20058;-34
2022/01/23 05:45:06;;;;;;;26.85;16.60;;;;;;;17.97;48.48;103663.50;5082891;28;20043;-34
2022/01/23 05:47:32;;;;;;;29.60;17.35;;;;;;;17.96;48.14;103661.72;5081914;28;20166;-33
2022/01/23 05:49:59;;;;;;;29.02;17.45;;;;;;;17.94;48.35;103660.97;5082936;28;20054;-33
2022/01/23 05:52:25;;;;;;;29.33;17.65;;;;;;;17.93;48.31;103653.84;5080227;28;20044;-34
2022/01/23 05:54:52;;;;;;;25.80;16.35;;;;;;;17.94;48.56;103650.22;5083105;28;20426;-33
2022/01/23 05:57:19;;;;;;;27.50;17.10;;;;;;;17.92;48.42;103649.44;5082590;28;20043;-33
2022/01/23 05:59:45;;;;;;;26.40;15.55;;;;;;;17.91;48.31;103642.34;5081833;28;20135;-33
2022/01/23 06:02:12;;;;;;;30.50;15.32;;;;;;;17.92;48.59;103649.44;5083021;28;20048;-33
2022/01/23 06:04:38;;;;;;;26.23;15.68;;;;;;;17.90;48.65;103649.53;5083953;28;20127;-33
2022/01/23 06:07:05;;;;;;;24.92;14.75;;;;;;;17.89;48.46;103653.19;5077755;28;20051;-34
2022/01/23 06:09:31;;;;;;;24.95;15.20;;;;;;;17.90;48.31;103656.72;5081859;28;20436;-34
2022/01/23 06:11:58;;;;;;;24.35;14.65;;;;;;;17.89;48.52;103654.97;5081895;28;20441;-34
2022/01/23 06:14:26;;;;;;;26.20;15.93;;;;;;;17.89;48.54;103660.34;5084917;28;20045;-35
2022/01/23 06:16:53;;;;;;;24.63;15.32;;;;;;;17.88;48.53;103661.28;5082020;28;20763;-33
2022/01/23 06:19:20;;;;;;;22.30;14.45;;;;;;;17.86;48.14;103666.75;5081283;28;20143;-35
2022/01/23 06:21:47;;;;;;;23.92;14.18;;;;;;;17.85;48.92;103662.34;5083760;28;20048;-34
2022/01/23 06:24:25;;;;;;;21.88;13.98;;;;;;;17.85;48.64;103665.03;5081963;28;20059;-35
2022/01/23 06:26:55;;;;;;;22.48;13.35;;;;;;;17.84;48.66;103667.78;5083061;28;20047;-33
2022/01/23 06:29:24;;;;;;;22.52;13.57;;;;;;;17.86;48.43;103666.75;5085313;28;20135;-33
2022/01/23 06:31:53;;;;;;;21.90;13.23;;;;;;;17.83;48.40;103666.91;5080767;28;20066;-33
2022/01/23 06:34:20;;;;;;;23.10;14.15;;;;;;;17.83;48.62;103666.03;5081936;28;20048;-34
2022/01/23 06:36:50;;;;;;;20.35;12.25;;;;;;;17.82;48.67;103667.88;5082926;28;20062;-34
2022/01/23 06:39:16;;;;;;;20.73;12.18;;;;;;;17.80;48.62;103669.75;5081116;28;20140;-33
2022/01/23 06:41:46;;;;;;;21.73;13.55;;;;;;;17.81;48.71;103670.63;5081076;28;20072;-33
2022/01/23 06:44:13;;;;;;;20.63;12.00;;;;;;;17.80;48.74;103671.56;5081393;28;20048;-35
2022/01/23 06:46:40;;;;;;;19.40;11.63;;;;;;;17.78;49.00;103676.16;5081065;28;20453;-34
2022/01/23 06:49:08;;;;;;;19.60;12.55;;;;;;;17.78;48.43;103666.31;5083549;28;20319;-35
2022/01/23 06:51:34;;;;;;;18.60;11.70;;;;;;;17.78;48.27;103666.31;5080164;28;20075;-34
2022/01/23 06:54:01;;;;;;;19.48;11.90;;;;;;;17.76;48.62;103674.41;5083847;28;20487;-34
2022/01/23 06:56:27;;;;;;;21.25;11.73;;;;;;;17.76;48.52;103670.88;5080990;28;20047;-34
2022/01/23 06:58:54;;;;;;;18.85;11.25;;;;;;;17.74;48.27;103672.75;5080801;28;20041;-34
2022/01/23 07:01:21;;;;;;;17.70;11.68;;;;;;;17.75;48.60;103679.88;5083739;28;20043;-34
2022/01/23 07:03:48;;;;;;;19.70;11.70;;;;;;;17.74;48.56;103680.78;5082624;28;20192;-35
2022/01/23 07:06:15;;;;;;;15.30;10.02;;;;;;;17.73;48.44;103676.38;5085830;28;20043;-35
2022/01/23 07:09:02;;;;;;;17.00;10.65;;;;;;;17.73;48.45;103687.97;5080017;28;20052;-34
2022/01/23 07:11:29;;;;;;;16.10;10.23;;;;;;;17.72;48.59;103688.91;5084207;28;20380;-35
2022/01/23 07:13:55;;;;;;;18.92;10.88;;;;;;;17.72;48.29;103698.78;5079475;28;20048;-35
2022/01/23 07:16:22;;;;;;;16.50;9.70;;;;;;;17.71;48.35;103692.53;5081538;28;20075;-35
2022/01/23 07:18:48;;;;;;;16.75;10.35;;;;;;;17.70;48.37;103696.19;5078261;28;20045;-34
2022/01/23 07:21:15;;;;;;;16.70;10.30;;;;;;;17.70;48.49;103706.91;5080458;28;20052;-35
2022/01/23 07:23:49;;;;;;;16.55;10.27;;;;;;;17.70;48.07;103706.91;5082063;28;20055;-35
2022/01/23 07:26:20;;;;;;;15.10;9.52;;;;;;;17.69;48.59;103707.00;5084085;28;20126;-35
2022/01/23 07:28:47;;;;;;;15.80;9.32;;;;;;;17.68;48.87;103711.47;5077341;28;20479;-34
2022/01/23 07:31:30;;;;;;;15.35;9.32;;;;;;;17.68;48.60;103711.47;5081601;28;20471;-35
2022/01/23 07:33:59;;;;;;;14.07;9.10;;;;;;;17.67;48.23;103709.75;5082443;28;20598;-34
2022/01/23 07:36:26;;;;;;;15.63;9.20;;;;;;;17.67;48.56;103715.13;5079691;28;20131;-34
2022/01/23 07:38:53;;;;;;;14.93;8.63;;;;;;;17.68;48.35;103724.91;5080665;28;20036;-34
2022/01/23 07:41:20;;;;;;;15.77;9.25;;;;;;;17.67;48.57;103725.84;5078261;28;20135;-35
2022/01/23 07:43:47;;;;;;;14.13;8.35;;;;;;;17.66;48.67;103726.81;5073965;28;20044;-35
2022/01/23 07:46:14;;;;;;;14.43;8.38;;;;;;;17.74;48.06;103731.78;5079033;28;20049;-34
2022/01/23 07:48:41;;;;;;;15.07;8.95;;;;;;;17.81;48.49;103730.53;5080153;28;20048;-35
2022/01/23 07:51:08;;;;;;;14.75;8.48;;;;;;;17.88;48.44;103723.88;5077005;28;20056;-33
2022/01/23 07:53:34;;;;;;;13.68;8.13;;;;;;;17.98;48.05;103727.81;5076290;28;20052;-34
2022/01/23 07:56:02;;;;;;;11.90;7.47;;;;;;;18.08;47.87;103730.84;5073253;28;20044;-34
2022/01/23 07:58:29;;;;;;;12.57;7.55;;;;;;;18.18;47.85;103728.53;5074605;28;20336;-34
2022/01/23 08:00:56;;;;;;;13.35;7.78;;;;;;;18.28;47.56;103734.25;5076543;28;20048;-33
2022/01/23 08:03:23;;;;;;;13.90;8.70;;;;;;;18.37;47.23;103739.09;5074644;28;20059;-34
2022/01/23 08:05:49;;;;;;;14.80;9.38;;;;;;;18.43;47.62;103738.78;5077019;28;20339;-34
2022/01/23 08:08:16;;;;;;;14.55;9.25;;;;;;;18.48;46.99;103736.69;5073243;28;20052;-34
2022/01/23 08:10:42;;;;;;;14.13;8.40;;;;;;;18.53;47.55;103731.06;5075115;28;20067;-34
2022/01/23 08:13:09;;;;;;;14.75;8.77;;;;;;;18.57;46.82;103735.31;5075968;28;20101;-34
2022/01/23 08:15:36;;;;;;;12.63;8.35;;;;;;;18.59;46.98;103736.97;5072954;28;20047;-33
2022/01/23 08:18:04;;;;;;;12.95;7.78;;;;;;;18.61;46.85;103739.56;5073427;28;20043;-34
2022/01/23 08:20:33;;;;;;;14.43;8.90;;;;;;;18.59;46.73;103734.28;5072323;28;20048;-34
2022/01/23 08:23:02;;;;;;;12.10;7.85;;;;;;;18.57;46.55;103736.16;5076535;28;20057;-33
2022/01/23 08:25:30;;;;;;;12.50;7.90;;;;;;;18.56;47.01;103742.50;5076979;28;20123;-33
2022/01/23 08:27:57;;;;;;;15.50;8.35;;;;;;;18.54;46.74;103744.44;5073361;28;20139;-34
2022/01/23 08:30:24;;;;;;;15.13;9.02;;;;;;;18.51;46.64;103739.22;5075619;28;20058;-34
2022/01/23 08:32:50;;;;;;;15.57;9.13;;;;;;;18.49;46.98;103738.41;5072732;28;20086;-34
2022/01/23 08:35:18;;;;;;;16.90;10.93;;;;;;;18.45;46.65;103743.13;5075265;28;20052;-34
2022/01/23 08:37:44;;;;;;;19.20;11.60;;;;;;;18.44;46.79;103748.56;5076530;28;20044;-33
2022/01/23 08:40:45;;;;;;;17.75;10.82;;;;;;;18.41;47.14;103744.25;5072768;28;20044;-33
2022/01/23 08:43:12;;;;;;;18.92;11.70;;;;;;;18.40;46.60;103755.06;5072854;28;20052;-34
2022/01/23 08:45:39;;;;;;;18.85;11.05;;;;;;;18.38;47.14;103748.91;5075004;28;20054;-34
2022/01/23 08:48:06;;;;;;;18.45;11.52;;;;;;;18.36;46.99;103753.50;5072786;28;20054;-34
2022/01/23 08:50:33;;;;;;;19.45;11.65;;;;;;;18.34;47.00;103752.72;5072172;28;20052;-33
2022/01/23 08:53:00;;;;;;;19.83;12.45;;;;;;;18.31;47.24;103753.75;5072118;28;20595;-33
2022/01/23 08:55:26;;;;;;;21.08;12.88;;;;;;;18.29;47.13;103753.00;5075475;28;20076;-34
2022/01/23 08:57:53;;;;;;;20.52;12.50;;;;;;;18.28;47.25;103766.47;5075254;28;20770;-33
2022/01/23 09:00:30;;;;;;;19.58;12.18;;;;;;;18.25;46.83;103762.13;5072348;28;20044;-34
2022/01/23 09:02:57;;;;;;;18.08;11.82;;;;;;;18.22;47.48;103763.19;5075884;28;20048;-33
2022/01/23 09:05:25;;;;;;;20.23;12.75;;;;;;;18.20;46.95;103765.06;5072602;28;20052;-33
2022/01/23 09:07:52;;;;;;;20.20;12.20;;;;;;;18.19;47.50;103767.84;5075984;28;20033;-33
2022/01/23 09:10:26;;;;;;;19.90;12.30;;;;;;;18.16;47.33;103763.50;5074811;28;20048;-33
2022/01/23 09:13:30;;;;;;;20.80;12.32;;;;;;;18.13;47.52;103761.00;5073288;28;20278;-33
2022/01/23 09:15:42;;;;;;;18.33;11.82;;;;;;;18.14;47.38;103760.06;5075454;28;20136;-33
2022/01/23 09:18:08;;;;;;;20.40;12.77;;;;;;;18.12;47.42;103763.75;5073845;28;20045;-33
2022/01/23 09:20:35;;;;;;;19.17;12.02;;;;;;;18.09;47.15;103764.81;5073815;28;20044;-33
2022/01/23 09:23:02;;;;;;;22.42;12.63;;;;;;;18.09;46.97;103770.19;5076250;28;20043;-33
2022/01/23 09:25:28;;;;;;;22.90;13.75;;;;;;;18.07;47.48;103769.38;5077315;28;20050;-33
2022/01/23 09:27:57;;;;;;;19.92;12.38;;;;;;;18.04;47.39;103766.84;5072769;28;20048;-33
2022/01/23 09:30:24;;;;;;;22.50;12.77;;;;;;;18.02;46.86;103763.41;5073769;28;20496;-33
2022/01/23 09:32:50;;;;;;;20.40;13.10;;;;;;;17.97;47.03;103763.66;5073182;28;20121;-33
2022/01/23 09:35:17;;;;;;;20.48;12.65;;;;;;;17.94;46.99;103761.13;5079018;28;20277;-33
2022/01/23 09:37:44;;;;;;;21.67;12.63;;;;;;;17.93;47.29;103756.72;5076717;28;20163;-33
2022/01/23 09:40:12;;;;;;;20.20;12.45;;;;;;;17.92;47.69;103757.63;5071718;28;20050;-33
2022/01/23 09:42:48;;;;;;;22.05;12.90;;;;;;;17.91;47.24;103763.09;5073700;28;20079;-33
2022/01/23 09:45:15;;;;;;;21.77;12.55;;;;;;;17.90;47.48;103766.72;5071637;28;20097;-33
2022/01/23 09:47:42;;;;;;;19.15;12.10;;;;;;;17.88;47.50;103774.84;5074115;28;20083;-33
2022/01/23 09:50:11;;;;;;;21.17;12.88;;;;;;;17.88;47.25;103771.31;5073436;28;20163;-33
2022/01/23 09:52:40;;;;;;;19.85;12.25;;;;;;;17.88;47.59;103780.22;5072634;28;20156;-33
2022/01/23 09:55:11;;;;;;;21.58;13.60;;;;;;;17.86;47.57;103782.13;5075211;28;20048;-33
2022/01/23 09:57:49;;;;;;;22.38;13.63;;;;;;;17.85;47.65;103783.09;5072779;28;20071;-33
2022/01/23 10:00:21;;;;;;;26.63;15.05;;;;;;;17.84;47.75;103777.78;5072480;28;20048;-33
2022/01/23 10:02:49;;;;;;;25.83;14.40;;;;;;;17.85;47.55;103784.88;5076434;28;20135;-33
2022/01/23 10:05:17;;;;;;;24.38;14.48;;;;;;;17.82;48.01;103785.91;5073943;28;20461;-33
2022/01/23 10:07:44;;;;;;;22.98;14.45;;;;;;;17.82;47.70;103787.75;5073904;28;20055;-33
2022/01/23 10:10:18;;;;;;;24.20;14.77;;;;;;;17.81;48.05;103781.50;5076319;28;20135;-33
2022/01/23 10:12:51;;;;;;;27.58;14.98;;;;;;;17.80;47.21;103784.25;5076444;28;20139;-33
2022/01/23 10:15:19;;;;;;;25.35;14.75;;;;;;;17.81;47.59;103794.03;5073950;28;20046;-34
2022/01/23 10:17:46;;;;;;;23.40;14.50;;;;;;;17.79;47.68;103790.56;5074813;28;20064;-34
2022/01/23 10:20:14;;;;;;;24.23;14.23;;;;;;;17.79;47.47;103782.53;5079576;28;20052;-33
2022/01/23 10:22:44;;;;;;;26.02;14.73;;;;;;;17.75;47.69;103782.69;5077204;28;20072;-33
2022/01/23 10:25:15;;;;;;;24.63;15.38;;;;;;;17.76;47.61;103780.84;5074002;28;20172;-32
2022/01/23 10:28:05;;;;;;;26.70;16.08;;;;;;;17.84;47.96;103785.81;5042811;28;20486;-33
2022/01/23 10:30:34;;;;;;;26.38;16.42;;;;;;;17.95;48.20;103784.31;5010681;28;20140;-33
2022/01/23 10:33:04;;;;;;;28.95;16.55;;;;;;;18.06;47.92;103777.53;5009529;28;20059;-33
2022/01/23 10:35:32;;;;;;;27.20;16.98;;;;;;;18.16;47.42;103774.25;5011347;28;20052;-33
2022/01/23 10:38:08;;;;;;;33.83;19.95;;;;;;;18.27;47.60;103783.53;5009476;28;20050;-33
2022/01/23 10:40:37;;;;;;;37.03;21.73;;;;;;;18.37;47.69;103779.38;5070208;28;20058;-32
2022/01/23 10:48:48;;;;;;;45.72;26.10;;;;;;;18.67;47.59;103776.84;5009314;28;20048;-34
2022/01/23 10:51:22;;;;;;;46.70;27.48;;;;;;;18.77;47.74;103778.06;5008571;28;21685;-34
2022/01/23 10:54:16;;;;;;;49.35;28.83;;;;;;;18.86;47.26;103779.38;5008826;28;20063;-33
2022/01/23 10:56:54;;;;;;;;;;;;;;;18.95;47.78;103773.47;5006035;28;20544;-33
2022/01/23 10:59:21;;;;;;;63.80;34.90;;;;;;;19.04;48.10;103770.25;5010144;28;20022;-33
2022/01/23 11:02:11;;;;;;;58.47;34.72;;;;;;;19.09;47.50;103770.84;5010037;28;20733;-34
2022/01/23 11:05:05;;;;;;;65.30;37.47;;;;;;;19.16;47.88;103766.84;5033167;28;20113;-33
2022/01/23 11:07:33;;;;;;;60.28;35.50;;;;;;;19.25;47.21;103765.44;5071827;28;20048;-33
2022/01/23 11:10:14;;;;;;;59.00;36.25;;;;;;;19.30;47.84;103766.06;5073488;28;20614;-33
2022/01/23 11:18:05;;;;;;;71.57;42.10;;;;;;;19.49;47.36;103753.22;5074461;28;20151;-35
2022/01/23 11:20:40;;;;;;;74.13;43.88;;;;;;;19.57;47.57;103757.25;5076802;28;20362;-33
2022/01/23 11:23:17;;;;;;;73.85;42.95;;;;;;;19.62;47.47;103749.84;5075488;28;20068;-34
2022/01/23 11:26:04;;;;;;;72.10;44.55;;;;;;;19.67;46.94;103747.72;5074526;28;20049;-33
2022/01/23 11:28:39;;;;;;;85.25;49.35;;;;;;;19.75;46.79;103744.56;5070860;28;20052;-34
2022/01/23 11:31:09;;;;;;;82.30;49.03;;;;;;;19.80;46.65;103740.63;5070131;28;20058;-34
2022/01/23 11:33:36;;;;;;;74.35;46.50;;;;;;;19.84;46.43;103741.28;5075105;28;20157;-33
2022/01/23 11:36:04;;;;;;;75.57;45.08;;;;;;;19.86;45.75;103733.97;5075418;28;20046;-33
2022/01/23 11:38:32;;;;;;;78.40;46.72;;;;;;;19.82;45.78;103732.44;5077095;28;21083;-33
2022/01/23 11:55:34;;;;;;;74.45;44.42;;;;;;;19.64;46.85;103729.94;5074014;28;20089;-33
2022/01/23 11:58:03;;;;;;;72.63;43.13;;;;;;;19.61;47.04;103729.22;5070198;28;20058;-33
2022/01/23 12:00:33;;;;;;;72.72;42.17;;;;;;;19.59;47.07;103725.78;5073265;28;20048;-33
2022/01/23 12:03:18;;;;;;;72.78;42.60;;;;;;;19.55;46.72;103727.78;5071624;28;20130;-33
2022/01/23 12:05:49;;;;;;;72.68;43.35;;;;;;;19.55;47.04;103722.41;5072816;28;20078;-33
2022/01/23 12:08:32;;;;;;;71.80;43.15;;;;;;;19.51;46.94;103718.16;5070214;28;20158;-33
2022/01/23 12:17:05;;;;;;;73.47;40.78;;;;;;;19.39;46.72;103718.91;5054939;28;20098;-33
2022/01/23 12:19:47;;;;;;;66.90;39.17;;;;;;;19.35;46.59;103725.44;5050795;28;20045;-34
2022/01/23 12:22:42;;;;;;;68.30;40.55;;;;;;;19.32;46.68;103715.72;5054055;28;20067;-34
2022/01/23 12:25:16;;;;;;;66.57;39.67;;;;;;;19.32;46.85;103718.41;5053208;28;20051;-34
2022/01/23 12:27:44;;;;;;;74.30;42.90;;;;;;;19.31;46.48;103707.75;5054315;28;20083;-33
2022/01/23 12:30:22;;;;;;;66.03;40.50;;;;;;;19.29;46.56;103706.97;5050090;28;20049;-33
2022/01/23 12:33:08;;;;;;;72.88;42.33;;;;;;;19.27;46.24;103704.38;5053847;28;20585;-33
2022/01/23 12:35:44;;;;;;;73.88;43.38;;;;;;;19.25;46.64;103706.28;5050699;28;20419;-33
2022/01/23 12:38:14;;;;;;;74.13;43.92;;;;;;;19.24;47.00;103702.72;5054557;28;20053;-33
2022/01/23 12:40:45;;;;;;;79.13;46.05;;;;;;;19.24;46.31;103702.72;5048916;28;20143;-34
2022/01/23 12:43:19;;;;;;;77.05;46.22;;;;;;;19.23;47.13;103703.69;5052113;28;20048;-33
2022/01/23 12:46:16;;;;;;;78.07;46.75;;;;;;;19.22;46.29;103698.41;5049229;28;20067;-33
2022/01/23 12:48:45;;;;;;;74.00;41.65;;;;;;;19.19;45.52;103702.13;5050070;28;20495;-33
2022/01/23 12:51:12;;;;;;;77.40;44.22;;;;;;;19.16;46.54;103705.00;5051300;28;20048;-34
2022/01/23 12:53:43;;;;;;;77.35;45.72;;;;;;;19.15;45.85;103697.91;5053012;28;20083;-34
2022/01/23 12:56:13;;;;;;;82.78;47.70;;;;;;;19.15;46.46;103700.59;5050657;28;20052;-33
2022/01/23 12:58:41;;;;;;;85.13;49.28;;;;;;;19.16;47.12;103704.13;5053180;28;20499;-34
2022/01/23 13:01:16;;;;;;;78.82;45.25;;;;;;;19.15;46.91;103700.59;5051304;28;20045;-34
2022/01/23 13:03:50;;;;;;;82.05;48.72;;;;;;;19.19;47.56;103696.75;5054327;28;20569;-33
2022/01/23 13:06:17;;;;;;;;;;;;;;;19.19;46.30;103691.38;5052048;28;20053;-33
2022/01/23 13:08:53;;;;;;;85.05;46.92;;;;;;;19.19;46.26;103695.91;5052774;28;19925;-33
2022/01/23 13:13:58;;;;;;;88.88;51.22;;;;;;;19.14;46.92;103698.88;5070029;28;20055;-33
2022/01/23 13:16:40;;;;;;;90.75;50.95;;;;;;;19.14;46.67;103692.63;5075252;28;20052;-33
2022/01/23 13:19:46;;;;;;;84.18;48.90;;;;;;;19.12;46.28;103684.63;5073596;28;20340;-33
2022/01/23 13:30:36;;;;;;;88.32;50.85;;;;;;;19.07;46.47;103684.06;5072139;28;20044;-34
2022/01/23 13:33:03;;;;;;;82.30;48.28;;;;;;;19.07;46.97;103680.50;5074637;28;20454;-34
2022/01/23 13:35:36;;;;;;;80.20;47.08;;;;;;;19.05;46.02;103682.41;5074346;28;20044;-34
2022/01/23 13:38:13;;;;;;;83.00;48.80;;;;;;;19.03;46.20;103677.13;5075951;28;20455;-33
2022/01/23 13:40:42;;;;;;;80.00;47.95;;;;;;;19.02;45.99;103682.59;5081622;28;20048;-33
2022/01/23 13:51:57;;;;;;;80.50;47.28;;;;;;;18.95;46.23;103677.56;5074582;28;20442;-33
2022/01/23 14:00:12;;;;;;;81.65;46.80;;;;;;;18.94;46.57;103672.31;5078113;28;20497;-33
2022/01/23 14:02:43;;;;;;;83.00;48.20;;;;;;;18.93;46.35;103673.22;5078982;28;20351;-33
2022/01/23 14:05:19;;;;;;;80.90;47.40;;;;;;;18.95;46.55;103674.88;5078986;28;20052;-33
2022/01/23 14:07:52;;;;;;;82.78;48.33;;;;;;;19.05;46.12;103671.66;5073650;28;20054;-34
2022/01/23 14:10:23;;;;;;;84.70;49.10;;;;;;;19.16;46.25;103672.75;5077105;28;20051;-33
2022/01/23 14:12:52;;;;;;;96.28;54.65;;;;;;;19.29;45.95;103661.25;5079262;28;20117;-33
2022/01/23 14:15:25;;;;;;;90.75;51.33;;;;;;;19.41;46.25;103663.19;5077711;28;20392;-34
2022/01/23 14:17:57;;;;;;;95.50;55.30;;;;;;;19.52;45.47;103660.69;5074655;28;20048;-33
2022/01/23 14:20:24;;;;;;;97.88;56.35;;;;;;;19.62;45.40;103659.22;5075881;28;20544;-33
2022/01/23 14:22:52;;;;;;;87.00;51.22;;;;;;;19.72;45.76;103662.19;5077490;28;20181;-33
2022/01/23 14:25:28;;;;;;;93.93;54.50;;;;;;;19.81;45.03;103655.34;5080019;28;20048;-34
2022/01/23 14:28:06;;;;;;;84.40;49.17;;;;;;;19.90;45.46;103652.97;5078180;28;20139;-33
2022/01/23 14:30:34;;;;;;;121.75;69.75;;;;;;;19.99;45.08;103656.03;5072475;28;20134;-33
2022/01/23 14:33:22;;;;;;;128.52;76.55;;;;;;;20.07;45.27;103651.03;5077271;28;20055;-33
2022/01/23 14:35:50;;;;;;;106.35;62.35;;;;;;;20.14;44.60;103655.91;5072191;28;20105;-33
2022/01/23 14:38:26;;;;;;;102.60;59.80;;;;;;;20.21;44.67;103657.22;5074883;28;20048;-33